PWSweather.com
Personal Weather Stations
Station Observations
GRD01
Warsaw, LesznoPL 05-084

WarsawLesznoPL 05-084

Lat: 52.257404, Lon: 20.564847

Elevation: 298

Station Type: WH3080

http://pogoda.kampinos.waw.pl

High Low Average
Temperature 86.2°F30.1°C 63.3°F17.4°C 74.9°F23.8°C
Dew Point 61.7°F16.5°C 54.7°F12.6°C 57.9°F14.4°C
Winds 9.8 mph 15.8 kmh Calm Calm 4.0 mph E6.4 kmh E
Wind Gusts 14.5 mph23.3 kmh 2.2 mph3.5 kmh 7.0 mph11.3 kmh
Humidity 80% 40% 57%
Pressure 30.66 in1038.3 mb 30.49 in1032.5 mb -
Precipitation 0.00 in0.0 mm - -
Hour Temp Dew Point Humidity Winds Wind Gusts Pressure Precip Precip Rate Daily Precip Total
12:00 AM 69.4°F20.8°C 58.8°F14.9°C 69% 3.8 mph NE6.1 kmh NE 6.9 mph11.1 kmh 30.64 in1037.6 mb 0.00 in0.0 mm 0.00 in0.0 mm 0.00 in0.0 mm
12:05 AM 69.4°F20.8°C 58.4°F14.7°C 68% 3.8 mph NE6.1 kmh NE 4.5 mph7.2 kmh 30.20 in1022.7 mb 0.00 in0.0 mm 0.00 in0.0 mm 0.00 in0.0 mm
12:15 AM 69.1°F20.6°C 58.9°F14.9°C 70% 4.5 mph NNE7.2 kmh NNE 8.3 mph13.4 kmh 30.64 in1037.6 mb 0.00 in0.0 mm 0.00 in0.0 mm 0.00 in0.0 mm
12:30 AM 68.9°F20.5°C 58.3°F14.6°C 69% 4.5 mph NE7.2 kmh NE 8.3 mph13.4 kmh 30.65 in1037.9 mb 0.00 in0.0 mm 0.00 in0.0 mm 0.00 in0.0 mm
12:35 AM 68.9°F20.5°C 58.3°F14.6°C 69% 6.0 mph E9.7 kmh E 8.3 mph13.4 kmh 30.20 in1022.7 mb 0.00 in0.0 mm 0.00 in0.0 mm 0.00 in0.0 mm
12:45 AM 68.9°F20.5°C 58.3°F14.6°C 69% 3.8 mph NE6.1 kmh NE 6.9 mph11.1 kmh 30.64 in1037.6 mb 0.00 in0.0 mm 0.00 in0.0 mm 0.00 in0.0 mm
01:00 AM 68.7°F20.4°C 58.1°F14.5°C 69% 5.4 mph NE8.7 kmh NE 6.9 mph11.1 kmh 30.64 in1037.6 mb 0.00 in0.0 mm 0.00 in0.0 mm 0.00 in0.0 mm
01:05 AM 68.7°F20.4°C 58.1°F14.5°C 69% 5.4 mph NE8.7 kmh NE 6.9 mph11.1 kmh 30.19 in1022.4 mb 0.00 in0.0 mm 0.00 in0.0 mm 0.00 in0.0 mm
01:15 AM 68.4°F20.2°C 58.2°F14.6°C 70% 3.1 mph NE5.0 kmh NE 5.4 mph8.7 kmh 30.64 in1037.6 mb 0.00 in0.0 mm 0.00 in0.0 mm 0.00 in0.0 mm
01:30 AM 67.8°F19.9°C 57.7°F14.3°C 70% 1.6 mph NE2.6 kmh NE 3.8 mph6.1 kmh 30.64 in1037.6 mb 0.00 in0.0 mm 0.00 in0.0 mm 0.00 in0.0 mm
01:35 AM 68.0°F20.0°C 57.8°F14.3°C 70% 1.6 mph NE2.6 kmh NE 2.2 mph3.5 kmh 30.20 in1022.7 mb 0.00 in0.0 mm 0.00 in0.0 mm 0.00 in0.0 mm
01:45 AM 67.3°F19.6°C 57.2°F14.0°C 70% 3.1 mph NE5.0 kmh NE 4.5 mph7.2 kmh 30.64 in1037.6 mb 0.00 in0.0 mm 0.00 in0.0 mm 0.00 in0.0 mm
02:00 AM 67.1°F19.5°C 57.4°F14.1°C 71% 3.8 mph NE6.1 kmh NE 6.0 mph9.7 kmh 30.64 in1037.6 mb 0.00 in0.0 mm 0.00 in0.0 mm 0.00 in0.0 mm
02:05 AM 67.1°F19.5°C 57.4°F14.1°C 71% 3.1 mph N5.0 kmh N 4.5 mph7.2 kmh 30.20 in1022.7 mb 0.00 in0.0 mm 0.00 in0.0 mm 0.00 in0.0 mm
02:15 AM 66.9°F19.4°C 57.2°F14.0°C 71% 2.2 mph NE3.5 kmh NE 5.4 mph8.7 kmh 30.64 in1037.6 mb 0.00 in0.0 mm 0.00 in0.0 mm 0.00 in0.0 mm
02:30 AM 66.0°F18.9°C 56.3°F13.5°C 71% 2.2 mph NE3.5 kmh NE 4.5 mph7.2 kmh 30.65 in1037.9 mb 0.00 in0.0 mm 0.00 in0.0 mm 0.00 in0.0 mm
02:35 AM 66.2°F19.0°C 56.5°F13.6°C 71% 2.2 mph N3.5 kmh N 3.8 mph6.1 kmh 30.20 in1022.7 mb 0.00 in0.0 mm 0.00 in0.0 mm 0.00 in0.0 mm
02:45 AM 65.5°F18.6°C 56.2°F13.4°C 72% 0.7 mph NE1.1 kmh NE 3.8 mph6.1 kmh 30.64 in1037.6 mb 0.00 in0.0 mm 0.00 in0.0 mm 0.00 in0.0 mm
03:00 AM 65.3°F18.5°C 56.0°F13.3°C 72% 2.2 mph NE3.5 kmh NE 4.5 mph7.2 kmh 30.64 in1037.6 mb 0.00 in0.0 mm 0.00 in0.0 mm 0.00 in0.0 mm
03:05 AM 65.3°F18.5°C 56.0°F13.3°C 72% 2.2 mph NE3.5 kmh NE 3.8 mph6.1 kmh 30.20 in1022.7 mb 0.00 in0.0 mm 0.00 in0.0 mm 0.00 in0.0 mm
03:15 AM 65.1°F18.4°C 55.9°F13.3°C 72% 3.1 mph NE5.0 kmh NE 5.4 mph8.7 kmh 30.64 in1037.6 mb 0.00 in0.0 mm 0.00 in0.0 mm 0.00 in0.0 mm
03:30 AM 64.8°F18.2°C 55.9°F13.3°C 73% 3.8 mph N6.1 kmh N 6.9 mph11.1 kmh 30.64 in1037.6 mb 0.00 in0.0 mm 0.00 in0.0 mm 0.00 in0.0 mm
03:35 AM 64.9°F18.3°C 55.7°F13.2°C 72% 4.5 mph N7.2 kmh N 5.4 mph8.7 kmh 30.20 in1022.7 mb 0.00 in0.0 mm 0.00 in0.0 mm 0.00 in0.0 mm
03:45 AM 64.6°F18.1°C 56.1°F13.4°C 74% 0.7 mph NNE1.1 kmh NNE 5.4 mph8.7 kmh 30.64 in1037.6 mb 0.00 in0.0 mm 0.00 in0.0 mm 0.00 in0.0 mm
04:00 AM 64.4°F18.0°C 55.9°F13.3°C 74% 1.6 mph NE2.6 kmh NE 3.1 mph5.0 kmh 30.64 in1037.6 mb 0.00 in0.0 mm 0.00 in0.0 mm 0.00 in0.0 mm
04:05 AM 64.4°F18.0°C 55.9°F13.3°C 74% 2.2 mph NE3.5 kmh NE 3.1 mph5.0 kmh 30.19 in1022.4 mb 0.00 in0.0 mm 0.00 in0.0 mm 0.00 in0.0 mm
04:15 AM 64.2°F17.9°C 55.8°F13.2°C 74% 1.6 mph NNE2.6 kmh NNE 3.8 mph6.1 kmh 30.64 in1037.6 mb 0.00 in0.0 mm 0.00 in0.0 mm 0.00 in0.0 mm
04:30 AM 63.9°F17.7°C 55.4°F13.0°C 74% 0.7 mph NE1.1 kmh NE 3.1 mph5.0 kmh 30.64 in1037.6 mb 0.00 in0.0 mm 0.00 in0.0 mm 0.00 in0.0 mm
04:35 AM 63.9°F17.7°C 55.4°F13.0°C 74% 2.2 mph NE3.5 kmh NE 3.1 mph5.0 kmh 30.20 in1022.7 mb 0.00 in0.0 mm 0.00 in0.0 mm 0.00 in0.0 mm
04:45 AM 63.7°F17.6°C 55.6°F13.1°C 75% 2.2 mph NE3.5 kmh NE 3.8 mph6.1 kmh 30.65 in1037.9 mb 0.00 in0.0 mm 0.00 in0.0 mm 0.00 in0.0 mm
05:00 AM 63.5°F17.5°C 55.4°F13.0°C 75% 2.2 mph NE3.5 kmh NE 3.1 mph5.0 kmh 30.65 in1037.9 mb 0.00 in0.0 mm 0.00 in0.0 mm 0.00 in0.0 mm
05:05 AM 63.5°F17.5°C 55.4°F13.0°C 75% 1.6 mph N2.6 kmh N 2.2 mph3.5 kmh 30.21 in1023.0 mb 0.00 in0.0 mm 0.00 in0.0 mm 0.00 in0.0 mm
05:15 AM 63.3°F17.4°C 57.0°F13.9°C 80% 1.6 mph NE2.6 kmh NE 3.1 mph5.0 kmh 30.65 in1037.9 mb 0.00 in0.0 mm 0.00 in0.0 mm 0.00 in0.0 mm
05:30 AM 63.5°F17.5°C 55.8°F13.2°C 76% Calm Calm 3.1 mph5.0 kmh 30.65 in1037.9 mb 0.00 in0.0 mm 0.00 in0.0 mm 0.00 in0.0 mm
05:35 AM 63.3°F17.4°C 57.0°F13.9°C 80% 0.7 mph E1.1 kmh E 1.6 mph2.6 kmh 30.21 in1023.0 mb 0.00 in0.0 mm 0.00 in0.0 mm 0.00 in0.0 mm
05:45 AM 64.0°F17.8°C 56.7°F13.7°C 77% 0.7 mph E1.1 kmh E 3.1 mph5.0 kmh 30.65 in1037.9 mb 0.00 in0.0 mm 0.00 in0.0 mm 0.00 in0.0 mm
06:00 AM 64.8°F18.2°C 57.0°F13.9°C 76% 0.7 mph NE1.1 kmh NE 2.2 mph3.5 kmh 30.65 in1037.9 mb 0.00 in0.0 mm 0.00 in0.0 mm 0.00 in0.0 mm
06:05 AM 64.6°F18.1°C 56.8°F13.8°C 76% 0.7 mph NE1.1 kmh NE 1.6 mph2.6 kmh 30.21 in1023.0 mb 0.00 in0.0 mm 0.00 in0.0 mm 0.00 in0.0 mm
06:15 AM 65.5°F18.6°C 57.3°F14.1°C 75% 0.7 mph E1.1 kmh E 3.1 mph5.0 kmh 30.66 in1038.3 mb 0.00 in0.0 mm 0.00 in0.0 mm 0.00 in0.0 mm
06:30 AM 66.7°F19.3°C 57.4°F14.1°C 72% 3.8 mph ESE6.1 kmh ESE 5.4 mph8.7 kmh 30.65 in1037.9 mb 0.00 in0.0 mm 0.00 in0.0 mm 0.00 in0.0 mm
06:35 AM 66.6°F19.2°C 57.3°F14.1°C 72% 2.2 mph E3.5 kmh E 3.8 mph6.1 kmh 30.21 in1023.0 mb 0.00 in0.0 mm 0.00 in0.0 mm 0.00 in0.0 mm
06:45 AM 68.0°F20.0°C 57.8°F14.3°C 70% 6.0 mph E9.7 kmh E 8.3 mph13.4 kmh 30.65 in1037.9 mb 0.00 in0.0 mm 0.00 in0.0 mm 0.00 in0.0 mm
07:00 AM 68.9°F20.5°C 58.3°F14.6°C 69% 6.0 mph E9.7 kmh E 6.9 mph11.1 kmh 30.65 in1037.9 mb 0.00 in0.0 mm 0.00 in0.0 mm 0.00 in0.0 mm
07:05 AM 68.9°F20.5°C 58.3°F14.6°C 69% 6.0 mph E9.7 kmh E 6.9 mph11.1 kmh 30.20 in1022.7 mb 0.00 in0.0 mm 0.00 in0.0 mm 0.00 in0.0 mm
07:15 AM 70.3°F21.3°C 58.9°F14.9°C 67% 3.8 mph E6.1 kmh E 7.6 mph12.2 kmh 30.65 in1037.9 mb 0.00 in0.0 mm 0.00 in0.0 mm 0.00 in0.0 mm
07:30 AM 71.2°F21.8°C 58.9°F14.9°C 65% 3.8 mph E6.1 kmh E 8.3 mph13.4 kmh 30.65 in1037.9 mb 0.00 in0.0 mm 0.00 in0.0 mm 0.00 in0.0 mm
07:35 AM 71.2°F21.8°C 58.9°F14.9°C 65% 3.8 mph E6.1 kmh E 4.5 mph7.2 kmh 30.21 in1023.0 mb 0.00 in0.0 mm 0.00 in0.0 mm 0.00 in0.0 mm
07:45 AM 72.5°F22.5°C 58.3°F14.6°C 61% 5.4 mph ESE8.7 kmh ESE 8.3 mph13.4 kmh 30.66 in1038.3 mb 0.00 in0.0 mm 0.00 in0.0 mm 0.00 in0.0 mm
08:00 AM 73.8°F23.2°C 59.0°F15.0°C 60% 9.2 mph ESE14.8 kmh ESE 10.7 mph17.2 kmh 30.65 in1037.9 mb 0.00 in0.0 mm 0.00 in0.0 mm 0.00 in0.0 mm
08:05 AM 73.6°F23.1°C 58.8°F14.9°C 60% 6.0 mph NE9.7 kmh NE 8.3 mph13.4 kmh 30.21 in1023.0 mb 0.00 in0.0 mm 0.00 in0.0 mm 0.00 in0.0 mm
08:15 AM 75.0°F23.9°C 58.3°F14.6°C 56% 4.5 mph E7.2 kmh E 9.8 mph15.8 kmh 30.65 in1037.9 mb 0.00 in0.0 mm 0.00 in0.0 mm 0.00 in0.0 mm
08:30 AM 75.9°F24.4°C 58.6°F14.8°C 55% 9.2 mph E14.8 kmh E 13.0 mph20.9 kmh 30.64 in1037.6 mb 0.00 in0.0 mm 0.00 in0.0 mm 0.00 in0.0 mm
08:35 AM 75.7°F24.3°C 58.4°F14.7°C 55% 6.0 mph E9.7 kmh E 8.3 mph13.4 kmh 30.21 in1023.0 mb 0.00 in0.0 mm 0.00 in0.0 mm 0.00 in0.0 mm
08:45 AM 76.8°F24.9°C 58.9°F14.9°C 54% 9.8 mph SE15.8 kmh SE 14.5 mph23.3 kmh 30.64 in1037.6 mb 0.00 in0.0 mm 0.00 in0.0 mm 0.00 in0.0 mm
09:00 AM 77.7°F25.4°C 59.2°F15.1°C 53% 3.8 mph SE6.1 kmh SE 9.2 mph14.8 kmh 30.64 in1037.6 mb 0.00 in0.0 mm 0.00 in0.0 mm 0.00 in0.0 mm
09:05 AM 77.4°F25.2°C 58.9°F14.9°C 53% 6.0 mph SE9.7 kmh SE 9.2 mph14.8 kmh 30.20 in1022.7 mb 0.00 in0.0 mm 0.00 in0.0 mm 0.00 in0.0 mm
09:15 AM 78.3°F25.7°C 59.2°F15.1°C 52% 3.1 mph E5.0 kmh E 11.4 mph18.3 kmh 30.64 in1037.6 mb 0.00 in0.0 mm 0.00 in0.0 mm 0.00 in0.0 mm
09:30 AM 79.5°F26.4°C 60.4°F15.8°C 52% 6.9 mph ESE11.1 kmh ESE 9.2 mph14.8 kmh 30.64 in1037.6 mb 0.00 in0.0 mm 0.00 in0.0 mm 0.00 in0.0 mm
09:35 AM 79.3°F26.3°C 60.2°F15.7°C 52% 3.8 mph E6.1 kmh E 5.4 mph8.7 kmh 30.20 in1022.7 mb 0.00 in0.0 mm 0.00 in0.0 mm 0.00 in0.0 mm
09:45 AM 81.0°F27.2°C 60.6°F15.9°C 50% 5.4 mph E8.7 kmh E 9.2 mph14.8 kmh 30.64 in1037.6 mb 0.00 in0.0 mm 0.00 in0.0 mm 0.00 in0.0 mm
10:00 AM 80.6°F27.0°C 60.8°F16.0°C 51% 4.5 mph SE7.2 kmh SE 9.2 mph14.8 kmh 30.64 in1037.6 mb 0.00 in0.0 mm 0.00 in0.0 mm 0.00 in0.0 mm
10:05 AM 80.8°F27.1°C 61.0°F16.1°C 51% 6.9 mph SE11.1 kmh SE 8.3 mph13.4 kmh 30.19 in1022.4 mb 0.00 in0.0 mm 0.00 in0.0 mm 0.00 in0.0 mm
10:15 AM 81.0°F27.2°C 61.7°F16.5°C 52% 3.1 mph ESE5.0 kmh ESE 9.8 mph15.8 kmh 30.64 in1037.6 mb 0.00 in0.0 mm 0.00 in0.0 mm 0.00 in0.0 mm
10:30 AM 81.5°F27.5°C 59.3°F15.2°C 47% 3.1 mph ENE5.0 kmh ENE 8.3 mph13.4 kmh 30.63 in1037.3 mb 0.00 in0.0 mm 0.00 in0.0 mm 0.00 in0.0 mm
10:35 AM 81.5°F27.5°C 59.3°F15.2°C 47% 4.5 mph N7.2 kmh N 6.0 mph9.7 kmh 30.19 in1022.4 mb 0.00 in0.0 mm 0.00 in0.0 mm 0.00 in0.0 mm
10:45 AM 81.9°F27.7°C 59.1°F15.1°C 46% 3.8 mph E6.1 kmh E 9.8 mph15.8 kmh 30.63 in1037.3 mb 0.00 in0.0 mm 0.00 in0.0 mm 0.00 in0.0 mm
11:00 AM 82.0°F27.8°C 58.6°F14.8°C 45% 8.3 mph E13.4 kmh E 11.4 mph18.3 kmh 30.62 in1036.9 mb 0.00 in0.0 mm 0.00 in0.0 mm 0.00 in0.0 mm
11:05 AM 82.0°F27.8°C 59.2°F15.1°C 46% 10.7 mph SE17.2 kmh SE 11.4 mph18.3 kmh 30.18 in1022.0 mb 0.00 in0.0 mm 0.00 in0.0 mm 0.00 in0.0 mm
11:15 AM 82.4°F28.0°C 58.9°F14.9°C 45% 3.1 mph SSE5.0 kmh SSE 9.8 mph15.8 kmh 30.62 in1036.9 mb 0.00 in0.0 mm 0.00 in0.0 mm 0.00 in0.0 mm
11:30 AM 82.8°F28.2°C 58.6°F14.8°C 44% 4.5 mph ESE7.2 kmh ESE 13.0 mph20.9 kmh 30.61 in1036.6 mb 0.00 in0.0 mm 0.00 in0.0 mm 0.00 in0.0 mm
11:35 AM 82.8°F28.2°C 58.6°F14.8°C 44% 9.2 mph SE14.8 kmh SE 9.8 mph15.8 kmh 30.17 in1021.7 mb 0.00 in0.0 mm 0.00 in0.0 mm 0.00 in0.0 mm
11:45 AM 83.1°F28.4°C 58.9°F14.9°C 44% 5.4 mph E8.7 kmh E 13.6 mph21.9 kmh 30.61 in1036.6 mb 0.00 in0.0 mm 0.00 in0.0 mm 0.00 in0.0 mm
12:00 PM 83.5°F28.6°C 59.3°F15.2°C 44% 2.2 mph ENE3.5 kmh ENE 8.3 mph13.4 kmh 30.60 in1036.2 mb 0.00 in0.0 mm 0.00 in0.0 mm 0.00 in0.0 mm
12:05 PM 83.3°F28.5°C 59.1°F15.1°C 44% 3.8 mph NE6.1 kmh NE 5.4 mph8.7 kmh 30.16 in1021.3 mb 0.00 in0.0 mm 0.00 in0.0 mm 0.00 in0.0 mm
12:15 PM 84.0°F28.9°C 59.1°F15.1°C 43% 1.6 mph ESE2.6 kmh ESE 11.4 mph18.3 kmh 30.61 in1036.6 mb 0.00 in0.0 mm 0.00 in0.0 mm 0.00 in0.0 mm
12:30 PM 84.0°F28.9°C 59.1°F15.1°C 43% 6.9 mph E11.1 kmh E 13.0 mph20.9 kmh 30.60 in1036.2 mb 0.00 in0.0 mm 0.00 in0.0 mm 0.00 in0.0 mm
12:35 PM 84.0°F28.9°C 59.1°F15.1°C 43% 6.9 mph NE11.1 kmh NE 9.2 mph14.8 kmh 30.16 in1021.3 mb 0.00 in0.0 mm 0.00 in0.0 mm 0.00 in0.0 mm
12:45 PM 84.6°F29.2°C 58.9°F14.9°C 42% 9.8 mph ESE15.8 kmh ESE 13.6 mph21.9 kmh 30.59 in1035.9 mb 0.00 in0.0 mm 0.00 in0.0 mm 0.00 in0.0 mm
01:00 PM 84.6°F29.2°C 58.9°F14.9°C 42% 5.4 mph SE8.7 kmh SE 9.8 mph15.8 kmh 30.60 in1036.2 mb 0.00 in0.0 mm 0.00 in0.0 mm 0.00 in0.0 mm
01:05 PM 84.6°F29.2°C 58.9°F14.9°C 42% 5.4 mph ESE8.7 kmh ESE 7.6 mph12.2 kmh 30.15 in1021.0 mb 0.00 in0.0 mm 0.00 in0.0 mm 0.00 in0.0 mm
01:15 PM 84.6°F29.2°C 58.9°F14.9°C 42% 3.1 mph ENE5.0 kmh ENE 9.2 mph14.8 kmh 30.59 in1035.9 mb 0.00 in0.0 mm 0.00 in0.0 mm 0.00 in0.0 mm
01:30 PM 85.5°F29.7°C 59.1°F15.1°C 41% 2.2 mph SSE3.5 kmh SSE 9.2 mph14.8 kmh 30.58 in1035.6 mb 0.00 in0.0 mm 0.00 in0.0 mm 0.00 in0.0 mm
01:35 PM 85.5°F29.7°C 59.1°F15.1°C 41% 3.1 mph S5.0 kmh S 3.8 mph6.1 kmh 30.14 in1020.7 mb 0.00 in0.0 mm 0.00 in0.0 mm 0.00 in0.0 mm
01:45 PM 85.8°F29.9°C 58.7°F14.8°C 40% 3.1 mph E5.0 kmh E 11.4 mph18.3 kmh 30.58 in1035.6 mb 0.00 in0.0 mm 0.00 in0.0 mm 0.00 in0.0 mm
02:00 PM 85.6°F29.8°C 59.2°F15.1°C 41% 6.9 mph SSE11.1 kmh SSE 9.8 mph15.8 kmh 30.57 in1035.2 mb 0.00 in0.0 mm 0.00 in0.0 mm 0.00 in0.0 mm
02:05 PM 85.5°F29.7°C 59.1°F15.1°C 41% 3.1 mph SE5.0 kmh SE 3.8 mph6.1 kmh 30.12 in1020.0 mb 0.00 in0.0 mm 0.00 in0.0 mm 0.00 in0.0 mm
02:15 PM 85.5°F29.7°C 59.1°F15.1°C 41% 0.7 mph ESE1.1 kmh ESE 10.7 mph17.2 kmh 30.56 in1034.9 mb 0.00 in0.0 mm 0.00 in0.0 mm 0.00 in0.0 mm
02:30 PM 85.8°F29.9°C 58.7°F14.8°C 40% 7.6 mph ESE12.2 kmh ESE 12.1 mph19.5 kmh 30.55 in1034.5 mb 0.00 in0.0 mm 0.00 in0.0 mm 0.00 in0.0 mm
02:35 PM 85.8°F29.9°C 59.4°F15.2°C 41% 10.7 mph E17.2 kmh E 12.1 mph19.5 kmh 30.12 in1020.0 mb 0.00 in0.0 mm 0.00 in0.0 mm 0.00 in0.0 mm
02:45 PM 85.6°F29.8°C 58.5°F14.7°C 40% 3.1 mph E5.0 kmh E 10.7 mph17.2 kmh 30.55 in1034.5 mb 0.00 in0.0 mm 0.00 in0.0 mm 0.00 in0.0 mm
03:00 PM 86.2°F30.1°C 59.0°F15.0°C 40% 4.5 mph SE7.2 kmh SE 9.2 mph14.8 kmh 30.55 in1034.5 mb 0.00 in0.0 mm 0.00 in0.0 mm 0.00 in0.0 mm
03:05 PM 86.2°F30.1°C 59.0°F15.0°C 40% 7.6 mph SE12.2 kmh SE 9.2 mph14.8 kmh 30.11 in1019.6 mb 0.00 in0.0 mm 0.00 in0.0 mm 0.00 in0.0 mm
03:15 PM 85.6°F29.8°C 58.5°F14.7°C 40% 6.9 mph E11.1 kmh E 10.7 mph17.2 kmh 30.55 in1034.5 mb 0.00 in0.0 mm 0.00 in0.0 mm 0.00 in0.0 mm
03:30 PM 85.3°F29.6°C 58.2°F14.6°C 40% 3.1 mph ESE5.0 kmh ESE 13.6 mph21.9 kmh 30.54 in1034.2 mb 0.00 in0.0 mm 0.00 in0.0 mm 0.00 in0.0 mm
03:35 PM 85.3°F29.6°C 58.2°F14.6°C 40% 3.8 mph SE6.1 kmh SE 4.5 mph7.2 kmh 30.10 in1019.3 mb 0.00 in0.0 mm 0.00 in0.0 mm 0.00 in0.0 mm
03:45 PM 85.8°F29.9°C 58.7°F14.8°C 40% 4.5 mph SE7.2 kmh SE 11.4 mph18.3 kmh 30.54 in1034.2 mb 0.00 in0.0 mm 0.00 in0.0 mm 0.00 in0.0 mm
04:00 PM 85.6°F29.8°C 58.5°F14.7°C 40% 9.2 mph SSE14.8 kmh SSE 10.7 mph17.2 kmh 30.53 in1033.9 mb 0.00 in0.0 mm 0.00 in0.0 mm 0.00 in0.0 mm
04:05 PM 85.6°F29.8°C 58.5°F14.7°C 40% 6.9 mph SE11.1 kmh SE 8.3 mph13.4 kmh 30.09 in1019.0 mb 0.00 in0.0 mm 0.00 in0.0 mm 0.00 in0.0 mm
04:15 PM 85.6°F29.8°C 58.5°F14.7°C 40% 1.6 mph SE2.6 kmh SE 9.2 mph14.8 kmh 30.53 in1033.9 mb 0.00 in0.0 mm 0.00 in0.0 mm 0.00 in0.0 mm
04:30 PM 85.1°F29.5°C 58.1°F14.5°C 40% 2.2 mph SE3.5 kmh SE 9.2 mph14.8 kmh 30.52 in1033.5 mb 0.00 in0.0 mm 0.00 in0.0 mm 0.00 in0.0 mm
04:35 PM 85.3°F29.6°C 58.2°F14.6°C 40% 3.1 mph SE5.0 kmh SE 3.8 mph6.1 kmh 30.08 in1018.6 mb 0.00 in0.0 mm 0.00 in0.0 mm 0.00 in0.0 mm
04:45 PM 84.6°F29.2°C 57.6°F14.2°C 40% 3.8 mph SE6.1 kmh SE 6.9 mph11.1 kmh 30.51 in1033.2 mb 0.00 in0.0 mm 0.00 in0.0 mm 0.00 in0.0 mm
05:00 PM 83.8°F28.8°C 57.6°F14.2°C 41% 2.2 mph SSE3.5 kmh SSE 8.3 mph13.4 kmh 30.52 in1033.5 mb 0.00 in0.0 mm 0.00 in0.0 mm 0.00 in0.0 mm
05:05 PM 84.0°F28.9°C 57.8°F14.3°C 41% 5.4 mph SE8.7 kmh SE 7.6 mph12.2 kmh 30.08 in1018.6 mb 0.00 in0.0 mm 0.00 in0.0 mm 0.00 in0.0 mm
05:15 PM 83.1°F28.4°C 57.0°F13.9°C 41% 3.8 mph SSE6.1 kmh SSE 6.9 mph11.1 kmh 30.51 in1033.2 mb 0.00 in0.0 mm 0.00 in0.0 mm 0.00 in0.0 mm
05:30 PM 82.2°F27.9°C 56.8°F13.8°C 42% 1.6 mph S2.6 kmh S 6.0 mph9.7 kmh 30.51 in1033.2 mb 0.00 in0.0 mm 0.00 in0.0 mm 0.00 in0.0 mm
05:35 PM 82.4°F28.0°C 57.0°F13.9°C 42% 1.6 mph SW2.6 kmh SW 2.2 mph3.5 kmh 30.07 in1018.3 mb 0.00 in0.0 mm 0.00 in0.0 mm 0.00 in0.0 mm
05:45 PM 81.3°F27.4°C 59.8°F15.4°C 48% 3.1 mph SE5.0 kmh SE 5.4 mph8.7 kmh 30.51 in1033.2 mb 0.00 in0.0 mm 0.00 in0.0 mm 0.00 in0.0 mm
06:00 PM 80.4°F26.9°C 60.1°F15.6°C 50% 3.1 mph SE5.0 kmh SE 6.0 mph9.7 kmh 30.51 in1033.2 mb 0.00 in0.0 mm 0.00 in0.0 mm 0.00 in0.0 mm
06:05 PM 80.6°F27.0°C 59.7°F15.4°C 49% 3.1 mph SE5.0 kmh SE 3.8 mph6.1 kmh 30.07 in1018.3 mb 0.00 in0.0 mm 0.00 in0.0 mm 0.00 in0.0 mm
06:15 PM 79.7°F26.5°C 59.4°F15.2°C 50% 2.2 mph ESE3.5 kmh ESE 6.0 mph9.7 kmh 30.51 in1033.2 mb 0.00 in0.0 mm 0.00 in0.0 mm 0.00 in0.0 mm
06:30 PM 79.0°F26.1°C 59.3°F15.2°C 51% 2.2 mph ESE3.5 kmh ESE 4.5 mph7.2 kmh 30.52 in1033.5 mb 0.00 in0.0 mm 0.00 in0.0 mm 0.00 in0.0 mm
06:35 PM 79.0°F26.1°C 59.3°F15.2°C 51% 2.2 mph E3.5 kmh E 3.8 mph6.1 kmh 30.07 in1018.3 mb 0.00 in0.0 mm 0.00 in0.0 mm 0.00 in0.0 mm
06:45 PM 77.7°F25.4°C 59.2°F15.1°C 53% 1.6 mph SE2.6 kmh SE 3.1 mph5.0 kmh 30.52 in1033.5 mb 0.00 in0.0 mm 0.00 in0.0 mm 0.00 in0.0 mm
07:00 PM 77.0°F25.0°C 59.1°F15.1°C 54% 1.6 mph SE2.6 kmh SE 3.1 mph5.0 kmh 30.52 in1033.5 mb 0.00 in0.0 mm 0.00 in0.0 mm 0.00 in0.0 mm
07:05 PM 77.0°F25.0°C 59.1°F15.1°C 54% 1.6 mph SE2.6 kmh SE 2.2 mph3.5 kmh 30.08 in1018.6 mb 0.00 in0.0 mm 0.00 in0.0 mm 0.00 in0.0 mm
07:15 PM 75.9°F24.4°C 58.6°F14.8°C 55% 4.5 mph SE7.2 kmh SE 6.0 mph9.7 kmh 30.52 in1033.5 mb 0.00 in0.0 mm 0.00 in0.0 mm 0.00 in0.0 mm
07:30 PM 75.9°F24.4°C 58.6°F14.8°C 55% 1.6 mph E2.6 kmh E 6.9 mph11.1 kmh 30.51 in1033.2 mb 0.00 in0.0 mm 0.00 in0.0 mm 0.00 in0.0 mm
07:35 PM 75.9°F24.4°C 58.6°F14.8°C 55% 2.2 mph E3.5 kmh E 3.8 mph6.1 kmh 30.07 in1018.3 mb 0.00 in0.0 mm 0.00 in0.0 mm 0.00 in0.0 mm
07:45 PM 75.4°F24.1°C 59.1°F15.1°C 57% 4.5 mph ENE7.2 kmh ENE 7.6 mph12.2 kmh 30.53 in1033.9 mb 0.00 in0.0 mm 0.00 in0.0 mm 0.00 in0.0 mm
08:00 PM 75.0°F23.9°C 58.8°F14.9°C 57% 3.8 mph E6.1 kmh E 10.7 mph17.2 kmh 30.52 in1033.5 mb 0.00 in0.0 mm 0.00 in0.0 mm 0.00 in0.0 mm
08:05 PM 75.0°F23.9°C 58.8°F14.9°C 57% 3.1 mph E5.0 kmh E 4.5 mph7.2 kmh 30.07 in1018.3 mb 0.00 in0.0 mm 0.00 in0.0 mm 0.00 in0.0 mm
08:15 PM 74.5°F23.6°C 58.2°F14.6°C 57% 3.1 mph E5.0 kmh E 6.9 mph11.1 kmh 30.51 in1033.2 mb 0.00 in0.0 mm 0.00 in0.0 mm 0.00 in0.0 mm
08:30 PM 73.8°F23.2°C 58.1°F14.5°C 58% 3.8 mph E6.1 kmh E 6.0 mph9.7 kmh 30.51 in1033.2 mb 0.00 in0.0 mm 0.00 in0.0 mm 0.00 in0.0 mm
08:35 PM 73.8°F23.2°C 58.1°F14.5°C 58% 3.1 mph E5.0 kmh E 4.5 mph7.2 kmh 30.08 in1018.6 mb 0.00 in0.0 mm 0.00 in0.0 mm 0.00 in0.0 mm
08:45 PM 73.0°F22.8°C 57.4°F14.1°C 58% 5.4 mph E8.7 kmh E 6.9 mph11.1 kmh 30.52 in1033.5 mb 0.00 in0.0 mm 0.00 in0.0 mm 0.00 in0.0 mm
09:00 PM 72.3°F22.4°C 58.1°F14.5°C 61% 0.7 mph E1.1 kmh E 4.5 mph7.2 kmh 30.52 in1033.5 mb 0.00 in0.0 mm 0.00 in0.0 mm 0.00 in0.0 mm
09:05 PM 72.5°F22.5°C 56.9°F13.8°C 58% 3.8 mph E6.1 kmh E 4.5 mph7.2 kmh 30.08 in1018.6 mb 0.00 in0.0 mm 0.00 in0.0 mm 0.00 in0.0 mm
09:15 PM 71.8°F22.1°C 57.6°F14.2°C 61% 2.2 mph ENE3.5 kmh ENE 3.8 mph6.1 kmh 30.52 in1033.5 mb 0.00 in0.0 mm 0.00 in0.0 mm 0.00 in0.0 mm
09:30 PM 71.2°F21.8°C 57.1°F13.9°C 61% 1.6 mph ESE2.6 kmh ESE 4.5 mph7.2 kmh 30.51 in1033.2 mb 0.00 in0.0 mm 0.00 in0.0 mm 0.00 in0.0 mm
09:35 PM 71.2°F21.8°C 57.1°F13.9°C 61% 2.2 mph E3.5 kmh E 3.1 mph5.0 kmh 30.06 in1017.9 mb 0.00 in0.0 mm 0.00 in0.0 mm 0.00 in0.0 mm
09:45 PM 70.7°F21.5°C 56.6°F13.7°C 61% 2.2 mph E3.5 kmh E 5.4 mph8.7 kmh 30.51 in1033.2 mb 0.00 in0.0 mm 0.00 in0.0 mm 0.00 in0.0 mm
10:00 PM 70.5°F21.4°C 56.4°F13.6°C 61% 3.1 mph E5.0 kmh E 4.5 mph7.2 kmh 30.50 in1032.8 mb 0.00 in0.0 mm 0.00 in0.0 mm 0.00 in0.0 mm
10:05 PM 70.5°F21.4°C 56.4°F13.6°C 61% 2.2 mph E3.5 kmh E 3.1 mph5.0 kmh 30.06 in1017.9 mb 0.00 in0.0 mm 0.00 in0.0 mm 0.00 in0.0 mm
10:15 PM 70.0°F21.1°C 55.9°F13.3°C 61% 1.6 mph E2.6 kmh E 4.5 mph7.2 kmh 30.50 in1032.8 mb 0.00 in0.0 mm 0.00 in0.0 mm 0.00 in0.0 mm
10:30 PM 69.6°F20.9°C 55.6°F13.1°C 61% 1.6 mph E2.6 kmh E 3.8 mph6.1 kmh 30.50 in1032.8 mb 0.00 in0.0 mm 0.00 in0.0 mm 0.00 in0.0 mm
10:35 PM 69.6°F20.9°C 55.6°F13.1°C 61% 2.2 mph E3.5 kmh E 3.1 mph5.0 kmh 30.06 in1017.9 mb 0.00 in0.0 mm 0.00 in0.0 mm 0.00 in0.0 mm
10:45 PM 69.1°F20.6°C 55.5°F13.1°C 62% 2.2 mph E3.5 kmh E 3.1 mph5.0 kmh 30.50 in1032.8 mb 0.00 in0.0 mm 0.00 in0.0 mm 0.00 in0.0 mm
11:00 PM 68.7°F20.4°C 55.2°F12.9°C 62% 1.6 mph ESE2.6 kmh ESE 4.5 mph7.2 kmh 30.50 in1032.8 mb 0.00 in0.0 mm 0.00 in0.0 mm 0.00 in0.0 mm
11:05 PM 68.9°F20.5°C 55.3°F12.9°C 62% 2.2 mph E3.5 kmh E 3.1 mph5.0 kmh 30.05 in1017.6 mb 0.00 in0.0 mm 0.00 in0.0 mm 0.00 in0.0 mm
11:15 PM 68.4°F20.2°C 54.8°F12.7°C 62% 1.6 mph E2.6 kmh E 4.5 mph7.2 kmh 30.50 in1032.8 mb 0.00 in0.0 mm 0.00 in0.0 mm 0.00 in0.0 mm
11:30 PM 68.2°F20.1°C 55.1°F12.8°C 63% 3.8 mph SE6.1 kmh SE 5.4 mph8.7 kmh 30.50 in1032.8 mb 0.00 in0.0 mm 0.00 in0.0 mm 0.00 in0.0 mm
11:35 PM 68.2°F20.1°C 55.1°F12.8°C 63% 3.8 mph SE6.1 kmh SE 4.5 mph7.2 kmh 30.05 in1017.6 mb 0.00 in0.0 mm 0.00 in0.0 mm 0.00 in0.0 mm
11:45 PM 68.2°F20.1°C 54.7°F12.6°C 62% 6.0 mph SE9.7 kmh SE 7.6 mph12.2 kmh 30.49 in1032.5 mb 0.00 in0.0 mm 0.00 in0.0 mm 0.00 in0.0 mm